createdAt,value
2019-05-09T00:03:37.316Z,91.40
2019-05-09T00:07:48.370Z,91.60
2019-05-09T00:11:58.708Z,91.70
2019-05-09T00:16:09.113Z,91.90
2019-05-09T00:20:23.807Z,92.10
2019-05-09T00:24:33.755Z,92.10
2019-05-09T00:28:45.705Z,92.20
2019-05-09T00:32:58.329Z,92.40
2019-05-09T00:37:08.673Z,92.50
2019-05-09T00:41:19.654Z,92.40
2019-05-09T00:45:47.996Z,92.80
2019-05-09T00:49:58.323Z,92.40
2019-05-09T00:54:08.673Z,92.40
2019-05-09T00:58:18.973Z,92.40
2019-05-09T01:02:29.315Z,92.40
2019-05-09T01:06:39.613Z,92.40
2019-05-09T01:10:49.928Z,92.40
2019-05-09T01:15:00.299Z,92.40
2019-05-09T01:19:13.925Z,92.50
2019-05-09T01:23:23.524Z,92.50
2019-05-09T01:27:34.071Z,92.50
2019-05-09T01:31:45.008Z,92.40
2019-05-09T01:35:55.306Z,92.50
2019-05-09T01:40:07.467Z,92.50
2019-05-09T01:44:17.911Z,92.50
2019-05-09T01:48:28.234Z,92.40
2019-05-09T01:52:38.704Z,92.40
2019-05-09T01:56:49.005Z,92.40
2019-05-09T02:01:05.834Z,92.40
2019-05-09T02:05:14.954Z,92.30
2019-05-09T02:09:25.307Z,92.20
2019-05-09T02:13:35.639Z,92.30
2019-05-09T02:18:04.319Z,92.40
2019-05-09T02:22:29.405Z,92.40
2019-05-09T02:26:39.724Z,92.50
2019-05-09T02:30:50.159Z,92.40
2019-05-09T02:35:04.766Z,92.50
2019-05-09T02:39:14.326Z,92.50
2019-05-09T02:43:24.988Z,92.40
2019-05-09T02:47:38.194Z,92.40
2019-05-09T02:51:48.735Z,92.40
2019-05-09T02:55:59.231Z,92.40
2019-05-09T03:00:11.778Z,92.30
2019-05-09T03:04:22.181Z,92.20
2019-05-09T03:08:32.515Z,91.90
2019-05-09T03:12:42.993Z,92.00
2019-05-09T03:16:53.330Z,91.90
2019-05-09T03:21:08.626Z,91.90
2019-05-09T03:25:19.087Z,91.80
2019-05-09T03:29:42.993Z,91.80
2019-05-09T03:33:53.301Z,91.60
2019-05-09T03:38:08.128Z,91.50
2019-05-09T03:42:23.067Z,91.40
2019-05-09T03:46:32.764Z,91.20
2019-05-09T03:50:43.362Z,90.90
2019-05-09T03:54:54.389Z,90.80
2019-05-09T03:59:04.765Z,90.70
2019-05-09T04:03:15.427Z,90.30
2019-05-09T04:07:27.757Z,90.20
2019-05-09T04:11:38.192Z,90.20
2019-05-09T04:15:48.705Z,90.20
2019-05-09T04:19:59.174Z,89.80
2019-05-09T04:24:09.630Z,90.30
2019-05-09T04:28:20.093Z,90.20
2019-05-09T04:32:30.632Z,90.60
2019-05-09T04:36:40.938Z,90.20
2019-05-09T04:40:58.343Z,90.30
2019-05-09T04:45:17.723Z,89.70
2019-05-09T04:49:30.066Z,89.60
2019-05-09T04:53:40.864Z,89.30
2019-05-09T04:57:52.137Z,89.10
2019-05-09T05:02:08.666Z,88.40
2019-05-09T05:06:20.778Z,88.00
2019-05-09T05:10:31.278Z,87.50
2019-05-09T05:14:41.627Z,87.40
2019-05-09T05:18:53.606Z,87.30
2019-05-09T05:23:08.070Z,87.70
2019-05-09T05:27:18.856Z,87.50
2019-05-09T05:31:29.519Z,87.70
2019-05-09T05:35:41.466Z,87.40
2019-05-09T05:39:51.829Z,87.50
2019-05-09T05:44:02.150Z,87.20
2019-05-09T05:48:14.140Z,85.80
2019-05-09T05:52:24.463Z,85.40
2019-05-09T05:56:34.806Z,85.30
2019-05-09T06:00:45.213Z,85.30
2019-05-09T06:04:57.714Z,85.00
2019-05-09T06:09:08.502Z,84.80
2019-05-09T06:13:19.881Z,84.80
2019-05-09T06:17:30.201Z,84.40
2019-05-09T06:21:40.537Z,84.60
2019-05-09T06:25:50.865Z,84.40
2019-05-09T06:30:01.305Z,84.60
2019-05-09T06:34:12.429Z,83.50
2019-05-09T06:38:23.498Z,83.30
2019-05-09T06:42:33.755Z,83.00
2019-05-09T06:46:51.449Z,82.90
2019-05-09T06:51:01.789Z,83.30
2019-05-09T06:55:12.398Z,81.80
2019-05-09T06:59:22.745Z,81.20
2019-05-09T07:03:34.838Z,79.60
2019-05-09T07:07:57.504Z,78.30
2019-05-09T07:12:08.129Z,76.30
2019-05-09T07:16:19.214Z,73.90
2019-05-09T07:20:29.625Z,72.20
2019-05-09T07:25:00.966Z,70.80
2019-05-09T07:29:08.764Z,69.90
2019-05-09T07:33:20.741Z,68.50
2019-05-09T07:37:31.265Z,67.00
2019-05-09T07:41:41.614Z,65.80
2019-05-09T07:46:10.628Z,65.20
2019-05-09T07:50:20.955Z,65.80
2019-05-09T07:54:31.391Z,64.90
2019-05-09T07:58:41.926Z,64.00
2019-05-09T08:02:52.318Z,61.90
2019-05-09T08:07:03.084Z,60.80
2019-05-09T08:11:13.486Z,60.50
2019-05-09T08:15:23.875Z,59.70
2019-05-09T08:19:34.312Z,59.90
2019-05-09T08:23:44.712Z,59.30
2019-05-09T08:27:55.045Z,58.40
2019-05-09T08:32:07.407Z,60.40
2019-05-09T08:36:19.801Z,61.00
2019-05-09T08:40:29.623Z,59.10
2019-05-09T08:44:42.081Z,56.60
2019-05-09T08:48:52.054Z,54.90
2019-05-09T08:53:02.617Z,52.90
2019-05-09T08:57:13.094Z,52.70
2019-05-09T09:01:34.583Z,52.10
2019-05-09T09:05:37.843Z,51.20
2019-05-09T09:09:48.242Z,50.50
2019-05-09T09:13:58.791Z,50.70
2019-05-09T09:18:10.264Z,51.10
2019-05-09T09:22:20.885Z,50.20
2019-05-09T09:26:31.493Z,48.80
2019-05-09T09:30:42.862Z,48.10
2019-05-09T09:34:53.277Z,47.60
2019-05-09T09:39:05.059Z,48.30
2019-05-09T09:43:17.598Z,47.80
2019-05-09T09:47:28.741Z,50.30
2019-05-09T09:51:39.758Z,52.10
2019-05-09T09:55:50.308Z,53.00
2019-05-09T10:00:02.304Z,52.80
2019-05-09T10:04:23.878Z,53.00
2019-05-09T10:08:29.326Z,50.60
2019-05-09T10:12:44.427Z,51.70
2019-05-09T10:17:10.505Z,50.10
2019-05-09T10:21:27.472Z,51.20
2019-05-09T10:25:38.283Z,48.70
2019-05-09T10:29:48.897Z,47.30
2019-05-09T10:33:59.187Z,46.10
2019-05-09T10:38:09.516Z,47.50
2019-05-09T10:42:30.623Z,47.80
2019-05-09T10:47:01.948Z,46.50
2019-05-09T10:51:10.704Z,46.80
2019-05-09T10:55:21.254Z,48.70
2019-05-09T10:59:31.638Z,50.00
2019-05-09T11:03:42.098Z,49.20
2019-05-09T11:07:53.456Z,46.90
2019-05-09T11:12:04.326Z,46.00
2019-05-09T11:16:15.153Z,46.80
2019-05-09T11:20:28.443Z,47.10
2019-05-09T11:24:45.761Z,45.30
2019-05-09T11:28:51.253Z,43.40
2019-05-09T11:33:02.235Z,44.10
2019-05-09T11:37:12.570Z,43.70
2019-05-09T11:41:22.869Z,44.20
2019-05-09T11:45:33.511Z,45.60
2019-05-09T11:49:43.857Z,47.40
2019-05-09T11:53:54.184Z,47.90
2019-05-09T11:58:05.061Z,47.70
2019-05-09T12:02:17.849Z,45.80
2019-05-09T12:06:29.165Z,45.60
2019-05-09T12:10:39.751Z,46.10
2019-05-09T12:14:50.087Z,46.20
2019-05-09T12:19:00.391Z,45.70
2019-05-09T12:23:10.905Z,46.10
2019-05-09T12:27:21.202Z,46.10
2019-05-09T12:31:32.510Z,46.50
2019-05-09T12:35:44.227Z,46.90
2019-05-09T12:39:54.561Z,46.00
2019-05-09T12:44:05.510Z,43.50
2019-05-09T12:48:17.008Z,43.30
2019-05-09T12:52:28.746Z,43.60
2019-05-09T12:56:39.393Z,42.50
2019-05-09T13:00:52.023Z,42.80
2019-05-09T13:05:04.549Z,43.40
2019-05-09T13:09:17.597Z,42.70
2019-05-09T13:13:30.181Z,42.30
2019-05-09T13:17:40.354Z,42.90
2019-05-09T13:21:50.632Z,43.20
2019-05-09T13:26:01.380Z,43.80
2019-05-09T13:30:12.976Z,44.30
2019-05-09T13:34:23.304Z,43.70
2019-05-09T13:38:34.577Z,42.40
2019-05-09T13:42:48.750Z,42.50
2019-05-09T13:46:58.522Z,42.80
2019-05-09T13:51:08.949Z,44.30
2019-05-09T13:55:19.548Z,44.50
2019-05-09T13:59:30.642Z,44.40
2019-05-09T14:03:41.601Z,43.90
2019-05-09T14:07:55.550Z,43.20
2019-05-09T14:12:09.114Z,41.00
2019-05-09T14:16:21.976Z,41.00
2019-05-09T14:20:30.675Z,41.20
2019-05-09T14:24:41.008Z,43.00
2019-05-09T14:28:52.941Z,42.70
2019-05-09T14:33:03.266Z,42.70
2019-05-09T14:37:17.813Z,42.50
2019-05-09T14:41:27.643Z,42.50
2019-05-09T14:45:38.074Z,42.60
2019-05-09T14:49:50.823Z,43.30
2019-05-09T14:54:01.472Z,43.40
2019-05-09T14:58:12.033Z,43.90
2019-05-09T15:02:22.361Z,44.20
2019-05-09T15:06:32.847Z,44.80
2019-05-09T15:10:43.048Z,43.60
2019-05-09T15:14:53.456Z,44.00
2019-05-09T15:19:05.185Z,43.60
2019-05-09T15:23:15.536Z,44.20
2019-05-09T15:27:27.696Z,44.60
2019-05-09T15:31:39.208Z,44.90
2019-05-09T15:35:49.778Z,45.00
2019-05-09T15:40:00.122Z,45.20
2019-05-09T15:44:12.408Z,45.50
2019-05-09T15:48:22.930Z,46.00
2019-05-09T15:52:33.470Z,45.80
2019-05-09T15:56:44.435Z,46.80
2019-05-09T16:01:04.216Z,46.10
2019-05-09T16:05:14.957Z,46.40
2019-05-09T16:09:28.602Z,46.40
2019-05-09T16:13:40.585Z,46.50
2019-05-09T16:17:52.585Z,46.20
2019-05-09T16:22:03.070Z,45.50
2019-05-09T16:26:15.378Z,44.80
2019-05-09T16:30:27.514Z,45.00
2019-05-09T16:34:38.666Z,45.30
2019-05-09T16:38:49.261Z,45.60
2019-05-09T16:42:59.827Z,45.00
2019-05-09T16:47:10.195Z,45.90
2019-05-09T16:51:20.520Z,46.20
2019-05-09T16:55:32.542Z,46.80
2019-05-09T16:59:42.889Z,48.90
2019-05-09T17:03:53.228Z,51.10
2019-05-09T17:08:03.579Z,52.40
2019-05-09T17:12:14.009Z,53.40
2019-05-09T17:16:24.774Z,54.20
2019-05-09T17:20:50.019Z,54.90
2019-05-09T17:25:00.378Z,55.50
2019-05-09T17:29:10.852Z,55.40
2019-05-09T17:33:22.048Z,55.90
2019-05-09T17:37:33.299Z,56.50
2019-05-09T17:41:44.366Z,56.40
2019-05-09T17:45:55.426Z,56.60
2019-05-09T17:50:07.739Z,56.80
2019-05-09T17:54:18.500Z,56.90
2019-05-09T17:58:32.987Z,56.90
2019-05-09T18:02:40.896Z,56.80
2019-05-09T18:06:51.216Z,56.80
2019-05-09T18:11:01.616Z,56.90
2019-05-09T18:15:12.417Z,56.80
2019-05-09T18:19:25.554Z,56.70
2019-05-09T18:23:35.949Z,56.70
2019-05-09T18:27:48.577Z,57.60
2019-05-09T18:32:03.217Z,57.50
2019-05-09T18:36:13.561Z,57.90
2019-05-09T18:40:28.098Z,58.20
2019-05-09T18:44:36.575Z,58.50
2019-05-09T18:48:47.667Z,59.00
2019-05-09T18:52:58.165Z,59.30
2019-05-09T18:57:08.475Z,59.50
2019-05-09T19:01:19.053Z,60.00
2019-05-09T19:05:30.047Z,59.90
2019-05-09T19:09:40.402Z,60.60
2019-05-09T19:13:52.337Z,61.10
2019-05-09T19:18:14.688Z,61.60
2019-05-09T19:22:25.033Z,62.00
2019-05-09T19:26:38.466Z,62.60
2019-05-09T19:30:48.741Z,63.20
2019-05-09T19:34:59.035Z,64.00
2019-05-09T19:39:10.850Z,64.90
2019-05-09T19:43:21.287Z,65.40
2019-05-09T19:47:31.690Z,66.10
2019-05-09T19:51:42.464Z,66.70
2019-05-09T19:55:52.778Z,67.00
2019-05-09T20:00:04.501Z,67.40
2019-05-09T20:04:14.833Z,67.70
2019-05-09T20:08:25.259Z,67.90
2019-05-09T20:12:49.008Z,67.90
2019-05-09T20:16:59.216Z,67.90
2019-05-09T20:21:09.590Z,67.70
2019-05-09T20:25:19.860Z,67.60
2019-05-09T20:29:30.529Z,67.50
2019-05-09T20:33:41.034Z,67.40
2019-05-09T20:37:51.564Z,68.50
2019-05-09T20:42:02.094Z,68.00
2019-05-09T20:46:13.097Z,68.50
2019-05-09T20:50:23.668Z,68.90
2019-05-09T20:54:34.324Z,69.40
2019-05-09T20:58:44.857Z,70.00
2019-05-09T21:02:55.477Z,70.50
2019-05-09T21:07:05.963Z,71.20
2019-05-09T21:11:16.520Z,71.70
2019-05-09T21:15:27.226Z,72.10
2019-05-09T21:19:38.007Z,72.50
2019-05-09T21:23:48.645Z,72.90
2019-05-09T21:27:59.298Z,73.30
2019-05-09T21:32:09.732Z,74.00
2019-05-09T21:36:20.064Z,74.90
2019-05-09T21:40:32.158Z,75.90
2019-05-09T21:44:42.669Z,76.60
2019-05-09T21:48:52.954Z,77.50
2019-05-09T21:53:04.655Z,78.00
2019-05-09T21:57:16.494Z,79.00
2019-05-09T22:01:27.020Z,79.70
2019-05-09T22:05:37.658Z,80.30
2019-05-09T22:09:48.133Z,80.80
2019-05-09T22:13:58.541Z,81.20
2019-05-09T22:18:08.863Z,81.20
2019-05-09T22:22:19.177Z,81.30
2019-05-09T22:26:29.369Z,81.60
2019-05-09T22:30:39.668Z,82.10
2019-05-09T22:34:50.013Z,82.50
2019-05-09T22:39:00.448Z,82.90
2019-05-09T22:43:10.947Z,83.80
2019-05-09T22:47:21.187Z,85.70
2019-05-09T22:51:31.491Z,87.60
2019-05-09T22:55:43.428Z,88.70
2019-05-09T22:59:53.899Z,89.70
2019-05-09T23:04:04.455Z,90.00
2019-05-09T23:08:15.237Z,90.30
2019-05-09T23:12:25.548Z,90.40
2019-05-09T23:16:37.670Z,90.60
2019-05-09T23:20:49.809Z,91.00
2019-05-09T23:25:00.129Z,90.80
2019-05-09T23:29:10.614Z,90.80
2019-05-09T23:33:21.663Z,90.90
2019-05-09T23:37:31.970Z,91.10
2019-05-09T23:41:42.318Z,91.10
2019-05-09T23:45:52.636Z,91.20
2019-05-09T23:50:03.476Z,91.30
2019-05-09T23:54:45.324Z,91.40
2019-05-09T23:59:03.363Z,91.50
